NCAR-RAP Real-Time Weather Data

Output produced by METARs form (24 April 2018  16:24 UTC)
found at http://weather.rap.ucar.edu/surface/
 
RJBD 241000Z 15017KT 4000 SHRA BR FEW006 BKN009 BKN020 19/18 Q1008
RJBD 240914Z 15017KT 3000 SHRA BR FEW007 SCT015 BKN035 19/18 Q1008 RMK 1ST007 4CU015 6CU035 A2978
RJBD 240900Z 15015KT 8000 -SHRA FEW009 SCT015 BKN040 19/18 Q1008
RJBD 240800Z 15015KT 9999 FEW020 SCT040 BKN070 20/17 Q1008
RJBD 240700Z 15015KT 9999 FEW020 SCT050 BKN090 20/17 Q1008
RJBD 240600Z 15015KT 9999 FEW020 SCT050 BKN090 20/16 Q1009
RJBD 240500Z 15014KT 9999 FEW010 SCT030 BKN050 20/16 Q1010
RJBD 240400Z 15011KT 9999 FEW015 BKN030 BKN050 21/16 Q1011
RJBD 240300Z 14010KT 9999 FEW010 SCT050 BKN070 20/17 Q1012
RJBD 240200Z 15010KT 9000 -SHRA FEW008 SCT030 BKN060 19/17 Q1013
RJBD 240100Z 14012KT 9999 VCSH FEW008 BKN025 BKN050 18/16 Q1014
RJBD 240000Z 14010KT 9999 VCSH FEW015 BKN030 BKN050 19/16 Q1014
RJBD 232300Z 13010KT 110V170 9999 -SHRA FEW015 SCT025 BKN040 19/16 Q1014
RJBD 232240Z 16010KT 8000 -SHRA FEW015 SCT025 BKN040 19/16 Q1014 RMK 1CU015 3CU025 5CU040 A2996
RJBD 231000Z 15005KT 9999 FEW030 SCT050 BKN/// 19/13 Q1018
RJBD 230900Z 15007KT 9999 FEW040 SCT180 BKN/// 20/13 Q1017
RJBD 230800Z 15008KT 9999 FEW040 SCT180 BKN/// 21/13 Q1017
RJBD 230700Z 16009KT 9999 FEW040 SCT180 BKN/// 21/13 Q1017
RJBD 230600Z 16009KT 9999 FEW040 BKN/// 22/13 Q1017
RJBD 230500Z 14008KT 9999 FEW040 BKN/// 22/12 Q1018
RJBD 230400Z 15006KT 110V220 9999 FEW040 SCT050 BKN/// 22/11 Q1019
RJBD 230300Z 14006KT 060V240 9999 FEW035 SCT045 BKN/// 22/12 Q1018
RJBD 230200Z VRB03KT 9999 FEW025 SCT035 BKN045 22/12 Q1019
RJBD 230100Z 19004KT 120V270 9999 FEW025 SCT035 BKN045 22/13 Q1019
RJBD 230000Z 15004KT 110V190 9999 FEW030 BKN040 20/11 Q1019
RJBD 222300Z VRB01KT 9999 FEW030 BKN040 18/13 Q1019
RJBD 222240Z VRB01KT 9999 FEW030 BKN040 18/14 Q1019 RMK 1CU030 7CU040 A3011
RJBD 221000Z VRB02KT 9999 FEW040 SCT/// 19/13 Q1019
RJBD 220900Z VRB02KT 9999 FEW040 SCT/// 20/14 Q1018
RJBD 220800Z 20005KT 150V280 9999 FEW040 BKN/// 21/13 Q1019
RJBD 220700Z 21005KT 160V280 9999 FEW040 BKN/// 21/13 Q1019
RJBD 220600Z VRB03KT 9999 FEW040 BKN/// 21/13 Q1019
RJBD 220500Z VRB02KT 9999 FEW040 BKN/// 22/13 Q1019